sensor_id;sensor_type;location;lat;lon;timestamp;P1;durP1;ratioP1;P2;durP2;ratioP2
21233;SDS011;10774;42.178;26.578;2023-05-17T00:00:21;14.30;;;8.23;;
21233;SDS011;10774;42.178;26.578;2023-05-17T00:02:46;12.82;;;9.23;;
21233;SDS011;10774;42.178;26.578;2023-05-17T00:05:11;10.23;;;7.55;;
21233;SDS011;10774;42.178;26.578;2023-05-17T00:07:37;13.27;;;7.93;;
21233;SDS011;10774;42.178;26.578;2023-05-17T00:10:02;13.02;;;7.93;;
21233;SDS011;10774;42.178;26.578;2023-05-17T00:12:28;11.13;;;7.32;;
21233;SDS011;10774;42.178;26.578;2023-05-17T00:14:53;11.43;;;6.43;;
21233;SDS011;10774;42.178;26.578;2023-05-17T00:17:19;10.85;;;6.63;;
21233;SDS011;10774;42.178;26.578;2023-05-17T00:19:44;10.02;;;6.60;;
21233;SDS011;10774;42.178;26.578;2023-05-17T00:22:10;11.50;;;7.22;;
21233;SDS011;10774;42.178;26.578;2023-05-17T00:24:35;13.65;;;7.57;;
21233;SDS011;10774;42.178;26.578;2023-05-17T00:27:01;10.95;;;6.30;;
21233;SDS011;10774;42.178;26.578;2023-05-17T00:29:26;12.00;;;6.75;;
21233;SDS011;10774;42.178;26.578;2023-05-17T00:31:52;16.52;;;7.07;;
21233;SDS011;10774;42.178;26.578;2023-05-17T00:34:17;11.32;;;7.28;;
21233;SDS011;10774;42.178;26.578;2023-05-17T00:36:42;11.80;;;7.65;;
21233;SDS011;10774;42.178;26.578;2023-05-17T00:39:08;12.30;;;7.93;;
21233;SDS011;10774;42.178;26.578;2023-05-17T00:41:33;12.15;;;7.30;;
21233;SDS011;10774;42.178;26.578;2023-05-17T00:43:59;14.35;;;8.02;;
21233;SDS011;10774;42.178;26.578;2023-05-17T00:46:25;12.07;;;7.85;;
21233;SDS011;10774;42.178;26.578;2023-05-17T00:48:50;16.45;;;8.55;;
21233;SDS011;10774;42.178;26.578;2023-05-17T00:51:16;13.13;;;8.40;;
21233;SDS011;10774;42.178;26.578;2023-05-17T00:53:43;10.15;;;7.53;;
21233;SDS011;10774;42.178;26.578;2023-05-17T00:56:09;15.18;;;7.70;;
21233;SDS011;10774;42.178;26.578;2023-05-17T00:58:35;10.80;;;7.53;;
21233;SDS011;10774;42.178;26.578;2023-05-17T01:03:34;12.30;;;8.27;;
21233;SDS011;10774;42.178;26.578;2023-05-17T01:05:59;15.10;;;8.32;;
21233;SDS011;10774;42.178;26.578;2023-05-17T01:08:25;13.38;;;8.27;;
21233;SDS011;10774;42.178;26.578;2023-05-17T01:11:02;16.75;;;8.95;;
21233;SDS011;10774;42.178;26.578;2023-05-17T01:16:24;13.73;;;8.50;;
21233;SDS011;10774;42.178;26.578;2023-05-17T01:27:15;11.90;;;7.47;;
21233;SDS011;10774;42.178;26.578;2023-05-17T01:29:42;11.52;;;8.10;;
21233;SDS011;10774;42.178;26.578;2023-05-17T01:32:09;17.00;;;8.88;;
21233;SDS011;10774;42.178;26.578;2023-05-17T01:34:36;13.40;;;7.82;;
21233;SDS011;10774;42.178;26.578;2023-05-17T01:37:02;14.90;;;8.52;;
21233;SDS011;10774;42.178;26.578;2023-05-17T01:39:28;15.38;;;8.70;;
21233;SDS011;10774;42.178;26.578;2023-05-17T01:41:58;10.00;;;7.88;;
21233;SDS011;10774;42.178;26.578;2023-05-17T01:44:48;10.88;;;6.80;;
21233;SDS011;10774;42.178;26.578;2023-05-17T01:48:11;10.85;;;7.63;;
21233;SDS011;10774;42.178;26.578;2023-05-17T01:50:16;14.10;;;7.18;;
21233;SDS011;10774;42.178;26.578;2023-05-17T01:55:43;10.70;;;7.90;;
21233;SDS011;10774;42.178;26.578;2023-05-17T01:58:13;15.80;;;7.68;;
21233;SDS011;10774;42.178;26.578;2023-05-17T02:00:40;12.65;;;7.35;;
21233;SDS011;10774;42.178;26.578;2023-05-17T02:03:18;11.07;;;8.40;;
21233;SDS011;10774;42.178;26.578;2023-05-17T02:08:09;10.85;;;7.32;;
21233;SDS011;10774;42.178;26.578;2023-05-17T02:10:35;10.20;;;6.47;;
21233;SDS011;10774;42.178;26.578;2023-05-17T02:13:00;12.57;;;7.80;;
21233;SDS011;10774;42.178;26.578;2023-05-17T02:15:26;11.85;;;7.65;;
21233;SDS011;10774;42.178;26.578;2023-05-17T02:17:51;13.82;;;8.07;;
21233;SDS011;10774;42.178;26.578;2023-05-17T02:20:17;12.90;;;8.35;;
21233;SDS011;10774;42.178;26.578;2023-05-17T02:22:42;13.60;;;8.30;;
21233;SDS011;10774;42.178;26.578;2023-05-17T02:25:08;15.48;;;8.52;;
21233;SDS011;10774;42.178;26.578;2023-05-17T02:27:34;12.27;;;8.18;;
21233;SDS011;10774;42.178;26.578;2023-05-17T02:30:00;13.40;;;7.80;;
21233;SDS011;10774;42.178;26.578;2023-05-17T02:32:26;14.07;;;7.95;;
21233;SDS011;10774;42.178;26.578;2023-05-17T02:34:52;12.30;;;7.20;;
21233;SDS011;10774;42.178;26.578;2023-05-17T02:37:18;11.13;;;7.05;;
21233;SDS011;10774;42.178;26.578;2023-05-17T02:39:44;9.48;;;6.95;;
21233;SDS011;10774;42.178;26.578;2023-05-17T02:42:09;13.25;;;7.15;;
21233;SDS011;10774;42.178;26.578;2023-05-17T02:44:35;12.98;;;8.25;;
21233;SDS011;10774;42.178;26.578;2023-05-17T02:47:00;10.63;;;6.80;;
21233;SDS011;10774;42.178;26.578;2023-05-17T02:49:26;7.68;;;6.63;;
21233;SDS011;10774;42.178;26.578;2023-05-17T02:51:51;11.60;;;7.20;;
21233;SDS011;10774;42.178;26.578;2023-05-17T02:54:17;11.25;;;6.53;;
21233;SDS011;10774;42.178;26.578;2023-05-17T02:56:42;10.70;;;6.90;;
21233;SDS011;10774;42.178;26.578;2023-05-17T02:59:07;14.48;;;7.30;;
21233;SDS011;10774;42.178;26.578;2023-05-17T03:01:33;13.85;;;6.93;;
21233;SDS011;10774;42.178;26.578;2023-05-17T03:03:58;10.02;;;6.55;;
21233;SDS011;10774;42.178;26.578;2023-05-17T03:06:24;15.95;;;7.00;;
21233;SDS011;10774;42.178;26.578;2023-05-17T03:08:49;11.88;;;6.95;;
21233;SDS011;10774;42.178;26.578;2023-05-17T03:11:15;13.63;;;7.63;;
21233;SDS011;10774;42.178;26.578;2023-05-17T03:13:40;12.15;;;6.82;;
21233;SDS011;10774;42.178;26.578;2023-05-17T03:16:05;14.00;;;7.30;;
21233;SDS011;10774;42.178;26.578;2023-05-17T03:18:33;11.95;;;7.30;;
21233;SDS011;10774;42.178;26.578;2023-05-17T03:20:58;14.52;;;8.18;;
21233;SDS011;10774;42.178;26.578;2023-05-17T03:23:24;14.23;;;8.35;;
21233;SDS011;10774;42.178;26.578;2023-05-17T03:25:50;17.13;;;8.65;;
21233;SDS011;10774;42.178;26.578;2023-05-17T03:28:15;13.07;;;8.32;;
21233;SDS011;10774;42.178;26.578;2023-05-17T03:30:41;13.73;;;9.50;;
21233;SDS011;10774;42.178;26.578;2023-05-17T03:33:06;19.42;;;9.32;;
21233;SDS011;10774;42.178;26.578;2023-05-17T03:35:32;18.65;;;8.85;;
21233;SDS011;10774;42.178;26.578;2023-05-17T03:37:57;18.52;;;9.95;;
21233;SDS011;10774;42.178;26.578;2023-05-17T03:40:23;14.88;;;9.25;;
21233;SDS011;10774;42.178;26.578;2023-05-17T03:42:48;15.32;;;9.60;;
21233;SDS011;10774;42.178;26.578;2023-05-17T03:45:14;12.60;;;9.38;;
21233;SDS011;10774;42.178;26.578;2023-05-17T03:47:40;14.20;;;9.45;;
21233;SDS011;10774;42.178;26.578;2023-05-17T03:50:07;15.18;;;10.23;;
21233;SDS011;10774;42.178;26.578;2023-05-17T03:52:33;27.92;;;11.13;;
21233;SDS011;10774;42.178;26.578;2023-05-17T03:54:58;23.35;;;11.90;;
21233;SDS011;10774;42.178;26.578;2023-05-17T03:57:23;16.42;;;10.90;;
21233;SDS011;10774;42.178;26.578;2023-05-17T03:59:49;15.05;;;10.32;;
21233;SDS011;10774;42.178;26.578;2023-05-17T04:02:14;20.67;;;10.45;;
21233;SDS011;10774;42.178;26.578;2023-05-17T04:04:40;17.83;;;11.98;;
21233;SDS011;10774;42.178;26.578;2023-05-17T04:07:06;16.48;;;11.15;;
21233;SDS011;10774;42.178;26.578;2023-05-17T04:09:31;19.38;;;10.23;;
21233;SDS011;10774;42.178;26.578;2023-05-17T04:11:59;17.73;;;9.10;;
21233;SDS011;10774;42.178;26.578;2023-05-17T04:14:24;15.52;;;9.65;;
21233;SDS011;10774;42.178;26.578;2023-05-17T04:16:50;15.25;;;9.57;;
21233;SDS011;10774;42.178;26.578;2023-05-17T04:19:15;17.48;;;9.75;;
21233;SDS011;10774;42.178;26.578;2023-05-17T04:21:41;14.18;;;9.20;;
21233;SDS011;10774;42.178;26.578;2023-05-17T04:24:06;13.30;;;9.32;;
21233;SDS011;10774;42.178;26.578;2023-05-17T04:26:32;13.15;;;9.15;;
21233;SDS011;10774;42.178;26.578;2023-05-17T04:28:58;12.18;;;9.43;;
21233;SDS011;10774;42.178;26.578;2023-05-17T04:31:23;18.98;;;8.98;;
21233;SDS011;10774;42.178;26.578;2023-05-17T04:33:49;14.85;;;9.52;;
21233;SDS011;10774;42.178;26.578;2023-05-17T04:36:14;16.15;;;9.98;;
21233;SDS011;10774;42.178;26.578;2023-05-17T04:38:41;16.17;;;10.38;;
21233;SDS011;10774;42.178;26.578;2023-05-17T04:41:07;16.95;;;11.02;;
21233;SDS011;10774;42.178;26.578;2023-05-17T04:43:33;17.10;;;10.38;;
21233;SDS011;10774;42.178;26.578;2023-05-17T04:45:59;41.00;;;24.30;;
21233;SDS011;10774;42.178;26.578;2023-05-17T04:48:25;26.60;;;17.35;;
21233;SDS011;10774;42.178;26.578;2023-05-17T04:50:51;17.42;;;10.65;;
21233;SDS011;10774;42.178;26.578;2023-05-17T04:53:17;15.90;;;9.80;;
21233;SDS011;10774;42.178;26.578;2023-05-17T04:55:43;18.17;;;11.18;;
21233;SDS011;10774;42.178;26.578;2023-05-17T04:58:09;18.90;;;11.63;;
21233;SDS011;10774;42.178;26.578;2023-05-17T05:00:35;18.83;;;12.00;;
21233;SDS011;10774;42.178;26.578;2023-05-17T05:03:01;13.35;;;9.35;;
21233;SDS011;10774;42.178;26.578;2023-05-17T05:05:28;19.15;;;9.02;;
21233;SDS011;10774;42.178;26.578;2023-05-17T05:07:54;12.70;;;9.15;;
21233;SDS011;10774;42.178;26.578;2023-05-17T05:10:20;14.90;;;9.70;;
21233;SDS011;10774;42.178;26.578;2023-05-17T05:12:45;12.82;;;9.07;;
21233;SDS011;10774;42.178;26.578;2023-05-17T05:15:11;19.48;;;10.35;;
21233;SDS011;10774;42.178;26.578;2023-05-17T05:17:36;14.55;;;10.23;;
21233;SDS011;10774;42.178;26.578;2023-05-17T05:20:02;22.50;;;10.45;;
21233;SDS011;10774;42.178;26.578;2023-05-17T05:22:28;13.98;;;9.20;;
21233;SDS011;10774;42.178;26.578;2023-05-17T05:24:54;17.55;;;11.45;;
21233;SDS011;10774;42.178;26.578;2023-05-17T05:27:20;20.00;;;12.80;;
21233;SDS011;10774;42.178;26.578;2023-05-17T05:29:45;19.58;;;10.68;;
21233;SDS011;10774;42.178;26.578;2023-05-17T05:32:11;19.58;;;10.07;;
21233;SDS011;10774;42.178;26.578;2023-05-17T05:34:37;16.33;;;9.45;;
21233;SDS011;10774;42.178;26.578;2023-05-17T05:37:03;19.88;;;11.15;;
21233;SDS011;10774;42.178;26.578;2023-05-17T05:39:28;18.35;;;10.88;;
21233;SDS011;10774;42.178;26.578;2023-05-17T05:41:54;19.08;;;11.75;;
21233;SDS011;10774;42.178;26.578;2023-05-17T05:44:19;18.65;;;11.13;;
21233;SDS011;10774;42.178;26.578;2023-05-17T05:46:44;17.65;;;11.52;;
21233;SDS011;10774;42.178;26.578;2023-05-17T05:49:10;13.45;;;10.55;;
21233;SDS011;10774;42.178;26.578;2023-05-17T05:51:35;12.10;;;9.77;;
21233;SDS011;10774;42.178;26.578;2023-05-17T05:54:01;12.10;;;8.80;;
21233;SDS011;10774;42.178;26.578;2023-05-17T05:56:26;16.77;;;11.05;;
21233;SDS011;10774;42.178;26.578;2023-05-17T05:58:53;15.13;;;8.85;;
21233;SDS011;10774;42.178;26.578;2023-05-17T06:01:19;10.73;;;7.75;;
21233;SDS011;10774;42.178;26.578;2023-05-17T06:03:45;13.70;;;8.48;;
21233;SDS011;10774;42.178;26.578;2023-05-17T06:06:10;12.00;;;8.38;;
21233;SDS011;10774;42.178;26.578;2023-05-17T06:08:36;11.88;;;8.20;;
21233;SDS011;10774;42.178;26.578;2023-05-17T06:11:01;16.42;;;8.20;;
21233;SDS011;10774;42.178;26.578;2023-05-17T06:13:27;10.15;;;7.65;;
21233;SDS011;10774;42.178;26.578;2023-05-17T06:15:52;11.65;;;8.07;;
21233;SDS011;10774;42.178;26.578;2023-05-17T06:18:18;12.73;;;8.13;;
21233;SDS011;10774;42.178;26.578;2023-05-17T06:20:43;16.50;;;7.90;;
21233;SDS011;10774;42.178;26.578;2023-05-17T06:23:10;13.35;;;7.75;;
21233;SDS011;10774;42.178;26.578;2023-05-17T06:25:35;14.95;;;8.20;;
21233;SDS011;10774;42.178;26.578;2023-05-17T06:28:00;9.80;;;6.93;;
21233;SDS011;10774;42.178;26.578;2023-05-17T06:30:27;11.48;;;7.95;;
21233;SDS011;10774;42.178;26.578;2023-05-17T06:32:52;12.23;;;8.32;;
21233;SDS011;10774;42.178;26.578;2023-05-17T06:35:18;19.08;;;12.35;;
21233;SDS011;10774;42.178;26.578;2023-05-17T06:37:43;15.27;;;8.35;;
21233;SDS011;10774;42.178;26.578;2023-05-17T06:40:08;9.70;;;6.43;;
21233;SDS011;10774;42.178;26.578;2023-05-17T06:42:34;9.48;;;5.80;;
21233;SDS011;10774;42.178;26.578;2023-05-17T06:45:00;8.98;;;6.20;;
21233;SDS011;10774;42.178;26.578;2023-05-17T06:47:25;10.05;;;6.57;;
21233;SDS011;10774;42.178;26.578;2023-05-17T06:49:51;10.18;;;6.45;;
21233;SDS011;10774;42.178;26.578;2023-05-17T06:52:16;10.40;;;6.93;;
21233;SDS011;10774;42.178;26.578;2023-05-17T06:54:42;11.40;;;6.93;;
21233;SDS011;10774;42.178;26.578;2023-05-17T06:57:07;12.68;;;6.88;;
21233;SDS011;10774;42.178;26.578;2023-05-17T06:59:34;11.85;;;7.45;;
21233;SDS011;10774;42.178;26.578;2023-05-17T07:02:00;14.15;;;6.57;;
21233;SDS011;10774;42.178;26.578;2023-05-17T07:04:25;10.82;;;6.50;;
21233;SDS011;10774;42.178;26.578;2023-05-17T07:06:51;9.07;;;6.28;;
21233;SDS011;10774;42.178;26.578;2023-05-17T07:09:17;10.70;;;5.47;;
21233;SDS011;10774;42.178;26.578;2023-05-17T07:11:42;11.13;;;5.85;;
21233;SDS011;10774;42.178;26.578;2023-05-17T07:14:08;10.48;;;5.88;;
21233;SDS011;10774;42.178;26.578;2023-05-17T07:16:33;11.20;;;6.28;;
21233;SDS011;10774;42.178;26.578;2023-05-17T07:18:59;13.05;;;6.65;;
21233;SDS011;10774;42.178;26.578;2023-05-17T07:21:24;9.43;;;7.35;;
21233;SDS011;10774;42.178;26.578;2023-05-17T07:23:50;11.63;;;6.35;;
21233;SDS011;10774;42.178;26.578;2023-05-17T07:26:17;8.55;;;5.30;;
21233;SDS011;10774;42.178;26.578;2023-05-17T07:28:43;8.98;;;5.70;;
21233;SDS011;10774;42.178;26.578;2023-05-17T07:31:09;10.73;;;5.57;;
21233;SDS011;10774;42.178;26.578;2023-05-17T07:33:35;10.43;;;5.80;;
21233;SDS011;10774;42.178;26.578;2023-05-17T07:36:01;10.00;;;5.45;;
21233;SDS011;10774;42.178;26.578;2023-05-17T07:38:27;10.20;;;5.43;;
21233;SDS011;10774;42.178;26.578;2023-05-17T07:40:52;10.90;;;5.30;;
21233;SDS011;10774;42.178;26.578;2023-05-17T07:43:18;11.10;;;6.10;;
21233;SDS011;10774;42.178;26.578;2023-05-17T07:45:43;10.70;;;5.47;;
21233;SDS011;10774;42.178;26.578;2023-05-17T07:48:09;10.85;;;5.78;;
21233;SDS011;10774;42.178;26.578;2023-05-17T07:50:34;8.48;;;5.20;;
21233;SDS011;10774;42.178;26.578;2023-05-17T07:53:00;10.90;;;6.65;;
21233;SDS011;10774;42.178;26.578;2023-05-17T07:55:25;10.68;;;5.75;;
21233;SDS011;10774;42.178;26.578;2023-05-17T07:57:50;14.52;;;6.88;;
21233;SDS011;10774;42.178;26.578;2023-05-17T08:00:16;10.65;;;7.13;;
21233;SDS011;10774;42.178;26.578;2023-05-17T08:02:43;15.25;;;7.32;;
21233;SDS011;10774;42.178;26.578;2023-05-17T08:05:09;17.17;;;8.60;;
21233;SDS011;10774;42.178;26.578;2023-05-17T08:07:35;20.25;;;11.55;;
21233;SDS011;10774;42.178;26.578;2023-05-17T08:10:00;16.77;;;10.52;;
21233;SDS011;10774;42.178;26.578;2023-05-17T08:12:25;17.25;;;10.43;;
21233;SDS011;10774;42.178;26.578;2023-05-17T08:14:51;29.33;;;15.65;;
21233;SDS011;10774;42.178;26.578;2023-05-17T08:17:17;22.10;;;13.57;;
21233;SDS011;10774;42.178;26.578;2023-05-17T08:19:42;22.05;;;13.77;;
21233;SDS011;10774;42.178;26.578;2023-05-17T08:22:08;16.92;;;9.85;;
21233;SDS011;10774;42.178;26.578;2023-05-17T08:24:34;16.23;;;12.80;;
21233;SDS011;10774;42.178;26.578;2023-05-17T08:27:00;21.35;;;11.70;;
21233;SDS011;10774;42.178;26.578;2023-05-17T08:29:26;21.08;;;13.57;;
21233;SDS011;10774;42.178;26.578;2023-05-17T08:31:52;17.88;;;13.27;;
21233;SDS011;10774;42.178;26.578;2023-05-17T08:34:18;20.65;;;14.13;;
21233;SDS011;10774;42.178;26.578;2023-05-17T08:36:44;25.10;;;16.88;;
21233;SDS011;10774;42.178;26.578;2023-05-17T08:39:09;22.95;;;14.57;;
21233;SDS011;10774;42.178;26.578;2023-05-17T08:41:36;19.88;;;13.15;;
21233;SDS011;10774;42.178;26.578;2023-05-17T08:44:02;19.40;;;12.32;;
21233;SDS011;10774;42.178;26.578;2023-05-17T08:46:29;14.93;;;10.00;;
21233;SDS011;10774;42.178;26.578;2023-05-17T08:48:57;16.65;;;8.65;;
21233;SDS011;10774;42.178;26.578;2023-05-17T08:51:25;16.80;;;11.02;;
21233;SDS011;10774;42.178;26.578;2023-05-17T08:53:51;23.02;;;10.02;;
21233;SDS011;10774;42.178;26.578;2023-05-17T08:56:17;17.85;;;9.02;;
21233;SDS011;10774;42.178;26.578;2023-05-17T08:58:48;20.50;;;9.43;;
21233;SDS011;10774;42.178;26.578;2023-05-17T09:01:17;16.45;;;8.38;;
21233;SDS011;10774;42.178;26.578;2023-05-17T09:03:44;17.58;;;8.88;;
21233;SDS011;10774;42.178;26.578;2023-05-17T09:06:15;19.98;;;8.23;;
21233;SDS011;10774;42.178;26.578;2023-05-17T09:08:42;20.67;;;9.07;;
21233;SDS011;10774;42.178;26.578;2023-05-17T09:11:08;23.05;;;9.63;;
21233;SDS011;10774;42.178;26.578;2023-05-17T09:13:34;16.40;;;6.93;;
21233;SDS011;10774;42.178;26.578;2023-05-17T09:16:01;17.52;;;8.77;;
21233;SDS011;10774;42.178;26.578;2023-05-17T09:18:30;15.93;;;9.13;;
21233;SDS011;10774;42.178;26.578;2023-05-17T09:20:56;18.63;;;11.25;;
21233;SDS011;10774;42.178;26.578;2023-05-17T09:23:29;25.08;;;15.80;;
21233;SDS011;10774;42.178;26.578;2023-05-17T09:26:02;23.73;;;17.63;;
21233;SDS011;10774;42.178;26.578;2023-05-17T09:28:40;25.83;;;15.03;;
21233;SDS011;10774;42.178;26.578;2023-05-17T09:31:07;23.75;;;13.32;;
21233;SDS011;10774;42.178;26.578;2023-05-17T09:33:34;22.98;;;12.13;;
21233;SDS011;10774;42.178;26.578;2023-05-17T09:36:14;14.38;;;8.15;;
21233;SDS011;10774;42.178;26.578;2023-05-17T09:38:41;27.97;;;13.70;;
21233;SDS011;10774;42.178;26.578;2023-05-17T09:41:06;30.20;;;14.40;;
21233;SDS011;10774;42.178;26.578;2023-05-17T09:43:32;28.55;;;13.82;;
21233;SDS011;10774;42.178;26.578;2023-05-17T09:45:57;17.58;;;9.40;;
21233;SDS011;10774;42.178;26.578;2023-05-17T09:48:24;21.23;;;9.55;;
21233;SDS011;10774;42.178;26.578;2023-05-17T09:50:51;17.42;;;6.90;;
21233;SDS011;10774;42.178;26.578;2023-05-17T09:53:24;17.95;;;7.63;;
21233;SDS011;10774;42.178;26.578;2023-05-17T09:55:57;16.85;;;8.02;;
21233;SDS011;10774;42.178;26.578;2023-05-17T09:58:24;15.95;;;7.63;;
21233;SDS011;10774;42.178;26.578;2023-05-17T10:00:52;16.70;;;7.57;;
21233;SDS011;10774;42.178;26.578;2023-05-17T10:03:24;29.98;;;14.05;;
21233;SDS011;10774;42.178;26.578;2023-05-17T10:05:51;22.70;;;13.48;;
21233;SDS011;10774;42.178;26.578;2023-05-17T10:08:19;23.85;;;11.30;;
21233;SDS011;10774;42.178;26.578;2023-05-17T10:10:47;22.75;;;10.45;;
21233;SDS011;10774;42.178;26.578;2023-05-17T10:13:14;31.20;;;15.88;;
21233;SDS011;10774;42.178;26.578;2023-05-17T10:15:43;34.13;;;17.92;;
21233;SDS011;10774;42.178;26.578;2023-05-17T10:18:08;31.95;;;18.88;;
21233;SDS011;10774;42.178;26.578;2023-05-17T10:20:35;33.97;;;20.95;;
21233;SDS011;10774;42.178;26.578;2023-05-17T10:23:01;30.92;;;20.25;;
21233;SDS011;10774;42.178;26.578;2023-05-17T10:25:30;32.90;;;18.85;;
21233;SDS011;10774;42.178;26.578;2023-05-17T10:27:56;26.95;;;17.52;;
21233;SDS011;10774;42.178;26.578;2023-05-17T10:30:24;22.33;;;13.95;;
21233;SDS011;10774;42.178;26.578;2023-05-17T10:32:50;19.45;;;12.77;;
21233;SDS011;10774;42.178;26.578;2023-05-17T10:35:17;22.20;;;11.02;;
21233;SDS011;10774;42.178;26.578;2023-05-17T10:37:43;14.52;;;8.18;;
21233;SDS011;10774;42.178;26.578;2023-05-17T10:40:09;14.63;;;8.32;;
21233;SDS011;10774;42.178;26.578;2023-05-17T10:42:38;13.02;;;6.75;;
21233;SDS011;10774;42.178;26.578;2023-05-17T10:45:24;17.55;;;7.28;;
21233;SDS011;10774;42.178;26.578;2023-05-17T10:47:51;15.55;;;6.22;;
21233;SDS011;10774;42.178;26.578;2023-05-17T10:50:23;16.13;;;6.47;;
21233;SDS011;10774;42.178;26.578;2023-05-17T10:52:51;11.40;;;6.80;;
21233;SDS011;10774;42.178;26.578;2023-05-17T10:55:25;13.63;;;6.63;;
21233;SDS011;10774;42.178;26.578;2023-05-17T10:58:07;10.07;;;4.88;;
21233;SDS011;10774;42.178;26.578;2023-05-17T11:00:40;16.70;;;5.53;;
21233;SDS011;10774;42.178;26.578;2023-05-17T11:03:11;16.15;;;7.05;;
21233;SDS011;10774;42.178;26.578;2023-05-17T11:05:38;17.30;;;8.52;;
21233;SDS011;10774;42.178;26.578;2023-05-17T11:08:13;20.05;;;9.68;;
21233;SDS011;10774;42.178;26.578;2023-05-17T11:11:27;11.75;;;7.80;;
21233;SDS011;10774;42.178;26.578;2023-05-17T11:13:48;19.20;;;8.05;;
21233;SDS011;10774;42.178;26.578;2023-05-17T11:16:21;17.58;;;7.90;;
21233;SDS011;10774;42.178;26.578;2023-05-17T11:18:53;12.90;;;7.43;;
21233;SDS011;10774;42.178;26.578;2023-05-17T11:21:20;10.23;;;5.57;;
21233;SDS011;10774;42.178;26.578;2023-05-17T11:23:47;13.32;;;5.35;;
21233;SDS011;10774;42.178;26.578;2023-05-17T11:29:00;12.38;;;5.97;;
21233;SDS011;10774;42.178;26.578;2023-05-17T11:31:34;18.38;;;5.88;;
21233;SDS011;10774;42.178;26.578;2023-05-17T11:34:04;11.98;;;6.07;;
21233;SDS011;10774;42.178;26.578;2023-05-17T11:36:30;13.25;;;6.13;;
21233;SDS011;10774;42.178;26.578;2023-05-17T11:39:12;15.98;;;6.65;;
21233;SDS011;10774;42.178;26.578;2023-05-17T11:41:39;15.65;;;8.40;;
21233;SDS011;10774;42.178;26.578;2023-05-17T11:44:12;15.02;;;6.40;;
21233;SDS011;10774;42.178;26.578;2023-05-17T11:46:39;16.30;;;5.95;;
21233;SDS011;10774;42.178;26.578;2023-05-17T11:49:07;16.10;;;6.28;;
21233;SDS011;10774;42.178;26.578;2023-05-17T11:51:34;13.25;;;5.50;;
21233;SDS011;10774;42.178;26.578;2023-05-17T11:53:59;13.50;;;5.35;;
21233;SDS011;10774;42.178;26.578;2023-05-17T11:56:28;12.15;;;5.85;;
21233;SDS011;10774;42.178;26.578;2023-05-17T11:58:59;12.88;;;5.80;;
21233;SDS011;10774;42.178;26.578;2023-05-17T12:01:25;13.02;;;6.22;;
21233;SDS011;10774;42.178;26.578;2023-05-17T12:03:54;10.98;;;6.47;;
21233;SDS011;10774;42.178;26.578;2023-05-17T12:06:23;15.77;;;5.15;;
21233;SDS011;10774;42.178;26.578;2023-05-17T12:08:49;11.63;;;6.75;;
21233;SDS011;10774;42.178;26.578;2023-05-17T12:11:15;13.30;;;7.32;;
21233;SDS011;10774;42.178;26.578;2023-05-17T12:13:41;15.07;;;7.20;;
21233;SDS011;10774;42.178;26.578;2023-05-17T12:16:12;16.25;;;5.97;;
21233;SDS011;10774;42.178;26.578;2023-05-17T12:18:42;17.00;;;5.50;;
21233;SDS011;10774;42.178;26.578;2023-05-17T12:21:11;12.15;;;5.82;;
21233;SDS011;10774;42.178;26.578;2023-05-17T12:23:39;16.30;;;6.85;;
21233;SDS011;10774;42.178;26.578;2023-05-17T12:26:17;13.95;;;8.07;;
21233;SDS011;10774;42.178;26.578;2023-05-17T12:28:44;11.82;;;5.57;;
21233;SDS011;10774;42.178;26.578;2023-05-17T12:31:32;12.55;;;6.45;;
21233;SDS011;10774;42.178;26.578;2023-05-17T12:34:00;14.10;;;5.75;;
21233;SDS011;10774;42.178;26.578;2023-05-17T12:36:29;12.60;;;5.43;;
21233;SDS011;10774;42.178;26.578;2023-05-17T12:38:57;14.15;;;6.38;;
21233;SDS011;10774;42.178;26.578;2023-05-17T12:41:23;17.30;;;7.18;;
21233;SDS011;10774;42.178;26.578;2023-05-17T12:43:50;14.25;;;7.85;;
21233;SDS011;10774;42.178;26.578;2023-05-17T12:46:17;16.80;;;8.02;;
21233;SDS011;10774;42.178;26.578;2023-05-17T12:48:43;14.32;;;8.18;;
21233;SDS011;10774;42.178;26.578;2023-05-17T12:51:10;16.42;;;8.70;;
21233;SDS011;10774;42.178;26.578;2023-05-17T12:53:43;15.77;;;8.60;;
21233;SDS011;10774;42.178;26.578;2023-05-17T12:56:17;17.85;;;7.18;;
21233;SDS011;10774;42.178;26.578;2023-05-17T13:01:43;11.23;;;5.68;;
21233;SDS011;10774;42.178;26.578;2023-05-17T13:04:13;14.38;;;6.15;;
21233;SDS011;10774;42.178;26.578;2023-05-17T13:09:15;14.88;;;8.57;;
21233;SDS011;10774;42.178;26.578;2023-05-17T13:12:04;20.83;;;11.75;;
21233;SDS011;10774;42.178;26.578;2023-05-17T13:17:06;16.17;;;8.35;;
21233;SDS011;10774;42.178;26.578;2023-05-17T13:19:33;13.98;;;7.43;;
21233;SDS011;10774;42.178;26.578;2023-05-17T13:22:02;14.13;;;7.35;;
21233;SDS011;10774;42.178;26.578;2023-05-17T13:24:33;15.95;;;6.57;;
21233;SDS011;10774;42.178;26.578;2023-05-17T13:27:00;16.13;;;6.95;;
21233;SDS011;10774;42.178;26.578;2023-05-17T13:29:27;15.93;;;5.43;;
21233;SDS011;10774;42.178;26.578;2023-05-17T13:31:53;13.25;;;6.35;;
21233;SDS011;10774;42.178;26.578;2023-05-17T13:34:18;19.33;;;9.70;;
21233;SDS011;10774;42.178;26.578;2023-05-17T13:36:47;31.88;;;16.25;;
21233;SDS011;10774;42.178;26.578;2023-05-17T13:39:13;19.98;;;10.73;;
21233;SDS011;10774;42.178;26.578;2023-05-17T13:41:39;15.77;;;6.30;;
21233;SDS011;10774;42.178;26.578;2023-05-17T13:44:05;14.93;;;5.35;;
21233;SDS011;10774;42.178;26.578;2023-05-17T13:46:31;10.15;;;4.57;;
21233;SDS011;10774;42.178;26.578;2023-05-17T13:48:56;18.90;;;9.02;;
21233;SDS011;10774;42.178;26.578;2023-05-17T13:51:22;25.80;;;11.10;;
21233;SDS011;10774;42.178;26.578;2023-05-17T13:53:49;24.90;;;10.70;;
21233;SDS011;10774;42.178;26.578;2023-05-17T13:56:15;20.05;;;9.80;;
21233;SDS011;10774;42.178;26.578;2023-05-17T13:58:41;23.70;;;10.73;;
21233;SDS011;10774;42.178;26.578;2023-05-17T14:01:06;20.48;;;10.40;;
21233;SDS011;10774;42.178;26.578;2023-05-17T14:03:32;29.23;;;18.80;;
21233;SDS011;10774;42.178;26.578;2023-05-17T14:05:58;21.27;;;10.57;;
21233;SDS011;10774;42.178;26.578;2023-05-17T14:08:24;11.05;;;5.05;;
21233;SDS011;10774;42.178;26.578;2023-05-17T14:10:49;15.93;;;5.88;;
21233;SDS011;10774;42.178;26.578;2023-05-17T14:13:15;13.73;;;6.32;;
21233;SDS011;10774;42.178;26.578;2023-05-17T14:15:40;16.88;;;9.73;;
21233;SDS011;10774;42.178;26.578;2023-05-17T14:18:06;17.05;;;12.77;;
21233;SDS011;10774;42.178;26.578;2023-05-17T14:20:34;19.20;;;11.52;;
21233;SDS011;10774;42.178;26.578;2023-05-17T14:22:59;14.63;;;8.02;;
21233;SDS011;10774;42.178;26.578;2023-05-17T14:25:26;15.80;;;6.88;;
21233;SDS011;10774;42.178;26.578;2023-05-17T14:27:52;16.75;;;6.03;;
21233;SDS011;10774;42.178;26.578;2023-05-17T14:30:17;13.57;;;6.30;;
21233;SDS011;10774;42.178;26.578;2023-05-17T14:32:44;12.52;;;7.70;;
21233;SDS011;10774;42.178;26.578;2023-05-17T14:35:10;16.20;;;6.97;;
21233;SDS011;10774;42.178;26.578;2023-05-17T14:37:36;17.02;;;7.10;;
21233;SDS011;10774;42.178;26.578;2023-05-17T14:40:01;14.15;;;6.65;;
21233;SDS011;10774;42.178;26.578;2023-05-17T14:42:27;13.45;;;6.43;;
21233;SDS011;10774;42.178;26.578;2023-05-17T14:44:52;17.98;;;6.90;;
21233;SDS011;10774;42.178;26.578;2023-05-17T14:47:18;21.42;;;9.77;;